Time;durP1;ratioP1;P1;durP2;ratioP2;P2;SDS_P1;SDS_P2;PMS_P1;PMS_P2;Temp;Humidity;BMP_temperature;BMP_pressure;BME280_temperature;BME280_humidity;BME280_pressure;Samples;Min_cycle;Max_cycle;Signal;HPM_P1;HPM_P2
2023/01/03 00:02:40;;;;;;;6.10;2.07;;;;;;;;;;5075566;28;20440;-89
2023/01/03 00:05:09;;;;;;;5.70;2.40;;;;;;;;;;5021026;28;20471;-89
2023/01/03 00:07:44;;;;;;;4.27;2.00;;;;;;;;;;5051005;28;20438;-88
2023/01/03 00:10:14;;;;;;;8.90;3.10;;;;;;;;;;5041667;28;20439;-89
2023/01/03 00:12:42;;;;;;;8.03;2.67;;;;;;;;;;5039563;28;20478;-89
2023/01/03 00:15:18;;;;;;;6.50;3.23;;;;;;;;;;5021255;28;20451;-89
2023/01/03 00:17:56;;;;;;;7.70;2.90;;;;;;;;;;5017744;28;20447;-89
2023/01/03 00:20:25;;;;;;;6.03;2.67;;;;;;;;;;5034372;28;20949;-89
2023/01/03 00:23:12;;;;;;;7.53;3.30;;;;;;;;;;5017531;28;20439;-89
2023/01/03 00:25:41;;;;;;;7.50;2.87;;;;;;;;;;5034102;28;20471;-88
2023/01/03 00:28:10;;;;;;;6.27;3.13;;;;;;;;;;5036911;28;20821;-90
2023/01/03 00:30:43;;;;;;;8.17;2.80;;;;;;;;;;5075925;28;20842;-89
2023/01/03 00:33:13;;;;;;;5.07;3.17;;;;;;;;;;5061067;28;20514;-89
2023/01/03 00:36:00;;;;;;;11.90;3.33;;;;;;;;;;5060722;28;20486;-89
2023/01/03 00:38:32;;;;;;;6.50;3.43;;;;;;;;;;5073959;28;20525;-89
2023/01/03 00:41:07;;;;;;;8.50;3.80;;;;;;;;;;5073108;28;20445;-89
2023/01/03 00:43:52;;;;;;;8.93;3.50;;;;;;;;;;5057754;28;20442;-89
2023/01/03 00:46:22;;;;;;;8.13;3.77;;;;;;;;;;5040496;28;20481;-89
2023/01/03 00:49:09;;;;;;;7.20;3.43;;;;;;;;;;5038238;28;20446;-89
2023/01/03 00:51:44;;;;;;;9.67;3.43;;;;;;;;;;5055319;28;20426;-89
2023/01/03 00:54:14;;;;;;;12.87;3.37;;;;;;;;;;5036937;28;20525;-89
2023/01/03 00:56:54;;;;;;;6.40;3.40;;;;;;;;;;5054722;28;20462;-89
2023/01/03 00:59:29;;;;;;;9.13;3.50;;;;;;;;;;5050861;28;20434;-90
2023/01/03 01:01:57;;;;;;;9.63;3.83;;;;;;;;;;5029506;28;20778;-89
2023/01/03 01:04:37;;;;;;;8.43;3.73;;;;;;;;;;5034110;28;20847;-89
2023/01/03 01:07:24;;;;;;;9.00;2.57;;;;;;;;;;5037021;28;20473;-89
2023/01/03 01:09:58;;;;;;;6.43;2.90;;;;;;;;;;5080917;28;20444;-90
2023/01/03 01:12:30;;;;;;;11.43;3.63;;;;;;;;;;5060103;28;20539;-89
2023/01/03 01:18:08;;;;;;;14.40;5.27;;;;;;;;;;5081372;28;20544;-89
2023/01/03 01:20:39;;;;;;;12.17;6.00;;;;;;;;;;5072993;28;20476;-89
2023/01/03 01:23:29;;;;;;;18.07;6.13;;;;;;;;;;5073553;28;20444;-88
2023/01/03 01:26:10;;;;;;;12.80;5.73;;;;;;;;;;5072936;28;20472;-89
2023/01/03 01:28:37;;;;;;;15.03;6.40;;;;;;;;;;5052031;28;20484;-89
2023/01/03 01:31:22;;;;;;;12.53;5.70;;;;;;;;;;5055779;28;20445;-89
2023/01/03 01:33:57;;;;;;;13.97;6.80;;;;;;;;;;5086117;28;20440;-89
2023/01/03 01:36:32;;;;;;;13.03;5.37;;;;;;;;;;5076808;28;20458;-89
2023/01/03 01:39:07;;;;;;;16.53;6.40;;;;;;;;;;5079310;28;20926;-88
2023/01/03 01:44:55;;;;;;;13.17;5.30;;;;;;;;;;5074383;28;20441;-89
2023/01/03 01:47:48;;;;;;;10.70;5.20;;;;;;;;;;5060501;28;20797;-89
2023/01/03 01:50:19;;;;;;;19.13;5.43;;;;;;;;;;5074828;28;20468;-89
2023/01/03 01:52:53;;;;;;;11.70;5.43;;;;;;;;;;5077743;28;20494;-89
2023/01/03 01:55:43;;;;;;;11.77;5.60;;;;;;;;;;5041737;28;20443;-89
2023/01/03 01:58:21;;;;;;;13.83;5.03;;;;;;;;;;5076842;28;20456;-89
2023/01/03 02:01:03;;;;;;;11.77;4.97;;;;;;;;;;5060236;28;20437;-89
2023/01/03 02:03:30;;;;;;;7.17;3.80;;;;;;;;;;5042165;28;20442;-89
2023/01/03 02:09:03;;;;;;;7.70;4.13;;;;;;;;;;5092166;28;20429;-89
2023/01/03 02:11:39;;;;;;;6.90;3.90;;;;;;;;;;5063791;28;20486;-89
2023/01/03 02:20:47;;;;;;;4.60;2.20;;;;;;;;;;5081616;28;20450;-89
2023/01/03 02:23:43;;;;;;;6.67;2.70;;;;;;;;;;5059806;28;20436;-89
2023/01/03 02:26:21;;;;;;;16.10;2.87;;;;;;;;;;5059860;28;20910;-89
2023/01/03 02:28:57;;;;;;;4.93;2.13;;;;;;;;;;5039202;28;20477;-89
2023/01/03 02:31:57;;;;;;;9.47;1.77;;;;;;;;;;5093888;28;20448;-89
2023/01/03 02:34:34;;;;;;;4.33;1.87;;;;;;;;;;5071732;28;20441;-89
2023/01/03 02:37:15;;;;;;;4.00;1.70;;;;;;;;;;5059575;28;20437;-89
2023/01/03 02:46:02;;;;;;;5.40;2.53;;;;;;;;;;5043280;28;20500;-89
2023/01/03 02:51:54;;;;;;;7.63;1.67;;;;;;;;;;5054568;28;21078;-89
2023/01/03 02:54:26;;;;;;;5.10;1.70;;;;;;;;;;5021578;28;20447;-89
2023/01/03 03:02:50;;;;;;;4.97;1.87;;;;;;;;;;5034355;28;20443;-89
2023/01/03 03:08:16;;;;;;;5.47;2.43;;;;;;;;;;5016302;28;20811;-89
2023/01/03 03:14:10;;;;;;;5.67;1.90;;;;;;;;;;5033915;28;20511;-89
2023/01/03 03:17:03;;;;;;;4.73;1.80;;;;;;;;;;5056650;28;20454;-89
2023/01/03 03:25:50;;;;;;;5.13;3.00;;;;;;;;;;5066598;28;20974;-89
2023/01/03 03:28:34;;;;;;;7.07;2.50;;;;;;;;;;5076332;28;20499;-89
2023/01/03 03:31:21;;;;;;;6.67;4.20;;;;;;;;;;5038413;28;20473;-89
2023/01/03 03:37:12;;;;;;;11.63;6.27;;;;;;;;;;5087294;28;20436;-89
2023/01/03 03:45:28;;;;;;;5.93;2.97;;;;;;;;;;5106556;28;20528;-88
2023/01/03 03:47:56;;;;;;;5.70;2.13;;;;;;;;;;5108698;28;20429;-89
2023/01/03 03:50:48;;;;;;;7.40;3.60;;;;;;;;;;5077663;28;20455;-89
2023/01/03 03:53:22;;;;;;;5.90;2.50;;;;;;;;;;5077015;28;20449;-89
2023/01/03 03:55:56;;;;;;;11.00;3.33;;;;;;;;;;5054942;28;20449;-89
2023/01/03 03:58:38;;;;;;;12.73;5.30;;;;;;;;;;5052001;28;20492;-89
2023/01/03 04:01:21;;;;;;;16.50;5.60;;;;;;;;;;5037113;28;20520;-89
2023/01/03 04:07:01;;;;;;;16.37;8.27;;;;;;;;;;5085265;28;20480;-89
2023/01/03 04:09:41;;;;;;;20.60;8.57;;;;;;;;;;5083407;28;20468;-88
2023/01/03 04:12:21;;;;;;;16.40;6.40;;;;;;;;;;5057403;28;20449;-88
2023/01/03 04:15:12;;;;;;;11.83;5.40;;;;;;;;;;5041303;28;20436;-89
2023/01/03 04:17:51;;;;;;;6.00;3.90;;;;;;;;;;5075366;28;20436;-88
2023/01/03 04:20:35;;;;;;;6.20;3.40;;;;;;;;;;5037891;28;20500;-89
2023/01/03 04:23:04;;;;;;;5.37;2.90;;;;;;;;;;5021623;28;20442;-89
2023/01/03 04:25:54;;;;;;;7.00;4.20;;;;;;;;;;5021314;28;20528;-89
2023/01/03 04:28:21;;;;;;;4.40;3.20;;;;;;;;;;5055699;28;20475;-88
2023/01/03 04:30:55;;;;;;;3.27;2.00;;;;;;;;;;5045204;28;20441;-89
2023/01/03 04:33:28;;;;;;;4.57;2.07;;;;;;;;;;5077581;28;20486;-89
2023/01/03 04:35:58;;;;;;;2.83;1.40;;;;;;;;;;5036913;28;21010;-88
2023/01/03 04:38:25;;;;;;;4.53;1.33;;;;;;;;;;5054234;28;20441;-89
2023/01/03 04:41:03;;;;;;;7.53;1.37;;;;;;;;;;5053539;28;20446;-89
2023/01/03 04:49:24;;;;;;;7.23;1.20;;;;;;;;;;5074481;28;20478;-89
2023/01/03 04:51:57;;;;;;;7.03;1.97;;;;;;;;;;5056579;28;20445;-89
2023/01/03 04:54:24;;;;;;;9.07;2.50;;;;;;;;;;5036869;28;20514;-89
2023/01/03 04:56:53;;;;;;;6.33;2.10;;;;;;;;;;5037394;28;20439;-89
2023/01/03 04:59:22;;;;;;;11.10;3.30;;;;;;;;;;5027605;28;20442;-89
2023/01/03 05:01:57;;;;;;;11.50;3.93;;;;;;;;;;5068933;28;20956;-89
2023/01/03 05:04:25;;;;;;;10.53;3.83;;;;;;;;;;5059760;28;20455;-89
2023/01/03 05:07:02;;;;;;;6.70;2.37;;;;;;;;;;5060597;28;20482;-89
2023/01/03 05:09:30;;;;;;;5.13;2.17;;;;;;;;;;5076315;28;20470;-89
2023/01/03 05:12:13;;;;;;;7.17;2.60;;;;;;;;;;5060331;28;20494;-89
2023/01/03 05:14:51;;;;;;;6.70;3.00;;;;;;;;;;5061097;28;20445;-89
2023/01/03 05:17:19;;;;;;;8.03;3.20;;;;;;;;;;5074395;28;20442;-89
2023/01/03 05:25:52;;;;;;;5.30;2.20;;;;;;;;;;5085364;28;20469;-89
2023/01/03 05:31:37;;;;;;;8.43;3.57;;;;;;;;;;5061861;28;20492;-89
2023/01/03 05:34:13;;;;;;;3.70;1.87;;;;;;;;;;5036658;28;20437;-89
2023/01/03 05:37:00;;;;;;;6.20;2.07;;;;;;;;;;5022815;28;20466;-89
2023/01/03 05:39:42;;;;;;;3.27;1.70;;;;;;;;;;5055909;28;20461;-89
2023/01/03 05:42:16;;;;;;;3.10;1.57;;;;;;;;;;5056469;28;20480;-89
2023/01/03 05:44:43;;;;;;;4.73;1.60;;;;;;;;;;5046966;28;20445;-88
2023/01/03 05:47:13;;;;;;;2.90;1.40;;;;;;;;;;5020226;28;20501;-89
2023/01/03 05:49:47;;;;;;;4.40;1.23;;;;;;;;;;5039862;28;20455;-89
2023/01/03 05:52:15;;;;;;;3.03;0.90;;;;;;;;;;5016740;28;20447;-89
2023/01/03 05:54:42;;;;;;;2.80;1.10;;;;;;;;;;5016860;28;20440;-89
2023/01/03 05:57:17;;;;;;;4.23;1.20;;;;;;;;;;5033645;28;20439;-89
2023/01/03 05:59:45;;;;;;;6.13;1.30;;;;;;;;;;5040321;28;20946;-89
2023/01/03 06:02:19;;;;;;;7.30;1.40;;;;;;;;;;5033472;28;20461;-88
2023/01/03 06:04:48;;;;;;;3.60;1.10;;;;;;;;;;5052391;28;20481;-88
2023/01/03 06:07:20;;;;;;;2.70;1.07;;;;;;;;;;5035893;28;20486;-88
2023/01/03 06:10:09;;;;;;;2.83;1.40;;;;;;;;;;5036438;28;20443;-89
2023/01/03 06:12:45;;;;;;;3.93;1.40;;;;;;;;;;5053840;28;20427;-88
2023/01/03 06:15:12;;;;;;;2.70;1.00;;;;;;;;;;5051323;28;20445;-89
2023/01/03 06:17:56;;;;;;;2.93;1.10;;;;;;;;;;5055512;28;20829;-89
2023/01/03 06:20:24;;;;;;;1.93;0.83;;;;;;;;;;5058310;28;20442;-89
2023/01/03 06:23:02;;;;;;;2.30;0.93;;;;;;;;;;5063925;28;20434;-89
2023/01/03 06:25:42;;;;;;;1.83;0.70;;;;;;;;;;5008886;28;20768;-89
2023/01/03 06:28:28;;;;;;;5.07;1.00;;;;;;;;;;5002794;28;20938;-89
2023/01/03 06:30:55;;;;;;;5.07;0.90;;;;;;;;;;5008092;28;20472;-89
2023/01/03 06:33:23;;;;;;;4.60;0.90;;;;;;;;;;5001314;28;20443;-89
2023/01/03 06:36:00;;;;;;;4.83;1.40;;;;;;;;;;5019621;28;20443;-88
2023/01/03 06:38:29;;;;;;;5.93;1.23;;;;;;;;;;5002640;28;20582;-89
2023/01/03 06:40:57;;;;;;;2.80;1.17;;;;;;;;;;5002440;28;20443;-89
2023/01/03 06:43:25;;;;;;;1.90;0.80;;;;;;;;;;5001116;28;20446;-88
2023/01/03 06:54:44;;;;;;;2.00;0.80;;;;;;;;;;5062983;28;20442;-89
2023/01/03 06:57:26;;;;;;;2.93;1.20;;;;;;;;;;5064882;28;20445;-88
2023/01/03 07:00:03;;;;;;;2.10;1.00;;;;;;;;;;5065612;28;20843;-89
2023/01/03 07:02:53;;;;;;;1.87;0.80;;;;;;;;;;5059296;28;20441;-89
2023/01/03 07:05:35;;;;;;;2.57;0.87;;;;;;;;;;5075059;28;20481;-89
2023/01/03 07:08:03;;;;;;;10.90;5.13;;;;;;;;;;5058322;28;20481;-89
2023/01/03 07:10:48;;;;;;;48.10;23.43;;;;;;;;;;5058948;28;20449;-89
2023/01/03 07:16:12;;;;;;;197.63;89.33;;;;;;;;;;5061753;28;20450;-89
2023/01/03 07:18:53;;;;;;;46.20;24.60;;;;;;;;;;5066707;28;20446;-89
2023/01/03 07:21:42;;;;;;;10.17;4.90;;;;;;;;;;5074338;28;20417;-89
2023/01/03 07:24:11;;;;;;;11.03;2.60;;;;;;;;;;5059686;28;20457;-90
2023/01/03 07:26:47;;;;;;;4.03;2.10;;;;;;;;;;5060470;28;20493;-89
2023/01/03 07:29:40;;;;;;;7.60;2.70;;;;;;;;;;5060686;28;20442;-94
2023/01/03 07:32:38;;;;;;;10.77;5.07;;;;;;;;;;5081312;28;20446;-92
2023/01/03 07:38:15;;;;;;;8.40;4.90;;;;;;;;;;5051951;28;20473;-91
2023/01/03 07:44:07;;;;;;;9.77;4.73;;;;;;;;;;5059678;28;20429;-91
2023/01/03 07:46:46;;;;;;;11.37;5.20;;;;;;;;;;5027957;28;20478;-88
2023/01/03 07:49:13;;;;;;;11.70;5.60;;;;;;;;;;5052467;28;20445;-86
2023/01/03 07:51:46;;;;;;;11.43;6.47;;;;;;;;;;5045129;28;20435;-88
2023/01/03 07:54:16;;;;;;;16.00;5.07;;;;;;;;;;5030655;28;20491;-89
2023/01/03 07:56:44;;;;;;;8.87;4.00;;;;;;;;;;5030254;28;20442;-88
2023/01/03 07:59:14;;;;;;;8.60;3.90;;;;;;;;;;5041366;28;20446;-89
2023/01/03 08:01:41;;;;;;;10.20;4.30;;;;;;;;;;5024348;28;20446;-89
2023/01/03 08:04:12;;;;;;;15.90;3.57;;;;;;;;;;5023968;28;20474;-89
2023/01/03 08:06:46;;;;;;;11.73;3.30;;;;;;;;;;5043647;28;20478;-88
2023/01/03 08:14:51;;;;;;;8.30;3.07;;;;;;;;;;5067823;28;20441;-89
2023/01/03 08:17:20;;;;;;;28.73;4.80;;;;;;;;;;5029378;28;20465;-89
2023/01/03 08:19:48;;;;;;;11.10;5.00;;;;;;;;;;5023247;28;20445;-89
2023/01/03 08:22:16;;;;;;;7.87;4.20;;;;;;;;;;5033714;28;20426;-89
2023/01/03 08:24:43;;;;;;;10.30;3.10;;;;;;;;;;5022971;28;20516;-90
2023/01/03 08:27:18;;;;;;;9.13;4.83;;;;;;;;;;5019546;28;20479;-90
2023/01/03 08:29:47;;;;;;;9.00;3.27;;;;;;;;;;5031491;28;20458;-90
2023/01/03 08:32:14;;;;;;;16.10;5.27;;;;;;;;;;5044184;28;20492;-89
2023/01/03 08:34:47;;;;;;;16.40;5.63;;;;;;;;;;5062063;28;20442;-90
2023/01/03 08:37:14;;;;;;;29.70;10.87;;;;;;;;;;5039578;28;20488;-89
2023/01/03 08:39:43;;;;;;;25.83;9.57;;;;;;;;;;5056926;28;20442;-90
2023/01/03 08:42:11;;;;;;;14.17;9.50;;;;;;;;;;5039207;28;20447;-90
2023/01/03 08:44:39;;;;;;;30.17;13.00;;;;;;;;;;5062380;28;20450;-92
2023/01/03 08:47:12;;;;;;;21.17;10.80;;;;;;;;;;5039772;28;20524;-91
2023/01/03 08:50:04;;;;;;;17.60;9.87;;;;;;;;;;5049255;28;20869;-91
2023/01/03 08:53:00;;;;;;;21.93;8.70;;;;;;;;;;5073583;28;20438;-90
2023/01/03 08:55:34;;;;;;;17.40;9.90;;;;;;;;;;5063552;28;20443;-90
2023/01/03 08:58:15;;;;;;;20.87;9.27;;;;;;;;;;5039556;28;20426;-90
2023/01/03 09:00:44;;;;;;;15.23;6.40;;;;;;;;;;5042128;28;20532;-90
2023/01/03 09:03:11;;;;;;;22.73;4.83;;;;;;;;;;5024711;28;20447;-90
2023/01/03 09:05:59;;;;;;;13.97;5.00;;;;;;;;;;5049263;28;20941;-89
2023/01/03 09:08:31;;;;;;;16.63;7.27;;;;;;;;;;5074015;28;20581;-90
2023/01/03 09:11:04;;;;;;;9.80;5.00;;;;;;;;;;5038419;28;20929;-90
2023/01/03 09:13:31;;;;;;;11.63;5.10;;;;;;;;;;5074399;28;20529;-89
2023/01/03 09:16:08;;;;;;;6.63;3.17;;;;;;;;;;5039925;28;20450;-90
2023/01/03 09:18:36;;;;;;;6.33;3.60;;;;;;;;;;5073941;28;20849;-90
2023/01/03 09:21:05;;;;;;;8.13;2.33;;;;;;;;;;5039444;28;20486;-90
2023/01/03 09:23:33;;;;;;;4.20;2.33;;;;;;;;;;5042588;28;20435;-90
2023/01/03 09:26:00;;;;;;;7.27;2.20;;;;;;;;;;5039622;28;20921;-90
2023/01/03 09:28:28;;;;;;;2.40;0.83;;;;;;;;;;5038739;28;20528;-90
2023/01/03 09:30:55;;;;;;;3.80;1.10;;;;;;;;;;5038976;28;20470;-90
2023/01/03 09:33:22;;;;;;;3.87;1.10;;;;;;;;;;5040666;28;20802;-90
2023/01/03 09:35:53;;;;;;;6.20;1.70;;;;;;;;;;5037004;28;20451;-90
2023/01/03 09:38:21;;;;;;;5.43;1.07;;;;;;;;;;5039564;28;20508;-90
2023/01/03 09:40:55;;;;;;;5.67;1.50;;;;;;;;;;5040557;28;20449;-90
2023/01/03 09:43:22;;;;;;;3.93;0.90;;;;;;;;;;5039860;28;20443;-91
2023/01/03 09:45:55;;;;;;;2.97;0.93;;;;;;;;;;5043547;28;20426;-90
2023/01/03 09:48:36;;;;;;;4.13;1.20;;;;;;;;;;5041606;28;20509;-90
2023/01/03 10:03:42;;;;;;;2.60;1.00;;;;;;;;;;5038638;28;20438;-90
2023/01/03 10:05:36;;;;;;;8.07;1.60;;;;;;;;;;5079497;28;20817;-90
2023/01/03 10:08:06;;;;;;;9.50;1.47;;;;;;;;;;5057229;28;20484;-90
2023/01/03 10:10:52;;;;;;;6.67;1.67;;;;;;;;;;5062842;28;20425;-90
2023/01/03 10:13:34;;;;;;;4.10;0.80;;;;;;;;;;5094268;28;20935;-91
2023/01/03 10:16:02;;;;;;;7.10;1.20;;;;;;;;;;5063573;28;20433;-90
2023/01/03 10:18:48;;;;;;;3.50;1.00;;;;;;;;;;5094858;28;20475;-91
2023/01/03 10:21:34;;;;;;;3.63;0.90;;;;;;;;;;5095341;28;20469;-90
2023/01/03 10:27:25;;;;;;;6.13;1.20;;;;;;;;;;5077833;28;20810;-91
2023/01/03 10:29:56;;;;;;;5.50;1.17;;;;;;;;;;5059730;28;20437;-90
2023/01/03 10:32:26;;;;;;;8.93;1.43;;;;;;;;;;5076087;28;20441;-90
2023/01/03 10:35:00;;;;;;;4.77;1.00;;;;;;;;;;5059960;28;20434;-90
2023/01/03 10:37:28;;;;;;;3.40;0.87;;;;;;;;;;5059637;28;20448;-90
2023/01/03 10:40:02;;;;;;;5.60;1.40;;;;;;;;;;5059856;28;20802;-90
2023/01/03 10:42:31;;;;;;;4.40;0.70;;;;;;;;;;5059629;28;20464;-90
2023/01/03 10:44:59;;;;;;;4.77;1.10;;;;;;;;;;5059501;28;20499;-90
2023/01/03 10:47:27;;;;;;;4.10;1.27;;;;;;;;;;5059627;28;20484;-90
2023/01/03 10:49:59;;;;;;;3.33;1.03;;;;;;;;;;5059507;28;20511;-90
2023/01/03 10:52:53;;;;;;;6.40;1.07;;;;;;;;;;5092633;28;20459;-91
2023/01/03 10:55:22;;;;;;;7.97;1.20;;;;;;;;;;5074381;28;21401;-90
2023/01/03 10:57:56;;;;;;;3.67;1.00;;;;;;;;;;5076005;28;20948;-90
2023/01/03 11:00:33;;;;;;;3.10;0.70;;;;;;;;;;5092527;28;20449;-90
2023/01/03 11:03:18;;;;;;;4.10;1.10;;;;;;;;;;5061943;28;20438;-90
2023/01/03 11:05:55;;;;;;;5.63;0.83;;;;;;;;;;5093749;28;20448;-91
2023/01/03 11:08:34;;;;;;;2.23;0.53;;;;;;;;;;5062228;28;20476;-90
2023/01/03 11:11:01;;;;;;;3.93;0.90;;;;;;;;;;5058636;28;20915;-90
2023/01/03 11:13:32;;;;;;;7.17;1.10;;;;;;;;;;5060500;28;20450;-90
2023/01/03 11:16:00;;;;;;;6.90;1.60;;;;;;;;;;5060233;28;20449;-90
2023/01/03 11:18:28;;;;;;;5.97;0.70;;;;;;;;;;5092044;28;20450;-90
2023/01/03 11:21:00;;;;;;;4.50;0.73;;;;;;;;;;5092153;28;20442;-90
2023/01/03 11:23:28;;;;;;;6.67;0.60;;;;;;;;;;5075220;28;20452;-90
2023/01/03 11:26:07;;;;;;;2.90;0.90;;;;;;;;;;5091852;28;20443;-90
2023/01/03 11:28:38;;;;;;;4.00;1.63;;;;;;;;;;5091964;28;20569;-90
2023/01/03 11:31:24;;;;;;;2.33;0.90;;;;;;;;;;5076760;28;20522;-91
2023/01/03 11:34:03;;;;;;;4.67;1.20;;;;;;;;;;5051505;28;20447;-90
2023/01/03 11:36:40;;;;;;;2.33;0.70;;;;;;;;;;5035747;28;20462;-90
2023/01/03 11:39:10;;;;;;;1.93;0.60;;;;;;;;;;5036092;28;20469;-90
2023/01/03 11:42:00;;;;;;;4.30;1.20;;;;;;;;;;5035301;28;20455;-90
2023/01/03 11:44:38;;;;;;;2.67;0.80;;;;;;;;;;5051253;28;20964;-90
2023/01/03 11:47:19;;;;;;;4.07;0.93;;;;;;;;;;5034780;28;20443;-90
2023/01/03 11:49:52;;;;;;;5.60;1.33;;;;;;;;;;5018522;28;20483;-91
2023/01/03 11:52:28;;;;;;;4.00;0.90;;;;;;;;;;5018219;28;20458;-90
2023/01/03 11:55:14;;;;;;;3.50;0.80;;;;;;;;;;5034956;28;20446;-90
2023/01/03 11:57:48;;;;;;;4.27;1.00;;;;;;;;;;5035498;28;20447;-90
2023/01/03 12:00:18;;;;;;;10.80;1.10;;;;;;;;;;5035599;28;20444;-90
2023/01/03 12:02:53;;;;;;;3.43;0.60;;;;;;;;;;5035658;28;20474;-91
2023/01/03 12:05:23;;;;;;;9.80;0.70;;;;;;;;;;5018236;28;20856;-90
2023/01/03 12:07:50;;;;;;;1.93;0.93;;;;;;;;;;5036061;28;20471;-90
2023/01/03 12:10:19;;;;;;;4.47;1.03;;;;;;;;;;5018071;28;20455;-90
2023/01/03 12:12:55;;;;;;;3.50;1.37;;;;;;;;;;5017920;28;20459;-90
2023/01/03 12:15:34;;;;;;;4.17;1.30;;;;;;;;;;5018086;28;20449;-90
2023/01/03 12:18:22;;;;;;;2.67;1.10;;;;;;;;;;5017938;28;20444;-90
2023/01/03 12:20:57;;;;;;;1.83;0.77;;;;;;;;;;5017448;28;20948;-90
2023/01/03 12:23:30;;;;;;;1.93;0.80;;;;;;;;;;5017668;28;20427;-90
2023/01/03 12:25:59;;;;;;;4.63;2.00;;;;;;;;;;5017804;28;20448;-90
2023/01/03 12:28:31;;;;;;;3.47;1.73;;;;;;;;;;5033607;28;20977;-90
2023/01/03 12:31:18;;;;;;;3.37;1.30;;;;;;;;;;5022533;28;20474;-91
2023/01/03 12:34:04;;;;;;;5.03;1.83;;;;;;;;;;5037810;28;20959;-90
2023/01/03 12:36:41;;;;;;;3.47;0.80;;;;;;;;;;5037801;28;20538;-91
2023/01/03 12:39:24;;;;;;;2.10;0.80;;;;;;;;;;5037417;28;20439;-90
2023/01/03 12:42:08;;;;;;;2.00;0.60;;;;;;;;;;5053786;28;20492;-90
2023/01/03 12:44:39;;;;;;;2.47;0.60;;;;;;;;;;5037410;28;20447;-90
2023/01/03 12:47:10;;;;;;;2.90;0.80;;;;;;;;;;5036481;28;20469;-91
2023/01/03 12:50:00;;;;;;;2.50;0.73;;;;;;;;;;5053719;28;20988;-90
2023/01/03 12:52:27;;;;;;;1.40;0.60;;;;;;;;;;5053836;28;20851;-91
2023/01/03 12:54:54;;;;;;;1.73;0.73;;;;;;;;;;5037041;28;20449;-90
2023/01/03 12:57:25;;;;;;;2.60;0.60;;;;;;;;;;5037381;28;20430;-90
2023/01/03 12:59:52;;;;;;;4.13;0.80;;;;;;;;;;5053471;28;20450;-90
2023/01/03 13:02:34;;;;;;;1.60;0.63;;;;;;;;;;5054383;28;20511;-91
2023/01/03 13:05:24;;;;;;;2.53;0.67;;;;;;;;;;5036682;28;20549;-90
2023/01/03 13:08:00;;;;;;;2.80;1.07;;;;;;;;;;5027348;28;20880;-90
2023/01/03 13:10:27;;;;;;;3.40;0.97;;;;;;;;;;5036625;28;20957;-90
2023/01/03 13:12:55;;;;;;;2.13;0.60;;;;;;;;;;5036870;28;20441;-90
2023/01/03 13:15:25;;;;;;;3.93;0.70;;;;;;;;;;5036672;28;20966;-90
2023/01/03 13:18:19;;;;;;;1.33;0.50;;;;;;;;;;5038088;28;20450;-90
2023/01/03 13:20:47;;;;;;;2.17;0.60;;;;;;;;;;5028863;28;20442;-90
2023/01/03 13:23:29;;;;;;;3.87;1.00;;;;;;;;;;5036817;28;20431;-90
2023/01/03 13:26:05;;;;;;;2.93;0.60;;;;;;;16.57;nan;102722.72;5037816;28;20450;-90
2023/01/03 13:28:34;;;;;;;1.47;0.63;;;;;;;16.58;nan;102724.44;5052701;28;20489;-90
2023/01/03 13:31:35;;;;;;;1.67;0.50;;;;;;;16.66;nan;102719.94;5036002;28;20517;-90
2023/01/03 13:34:10;;;;;;;2.70;0.70;;;;;;;16.75;nan;102729.84;5018299;28;20500;-90
2023/01/03 13:37:04;;;;;;;1.80;0.80;;;;;;;16.86;nan;102710.06;5036970;28;20446;-90
2023/01/03 13:39:47;;;;;;;1.70;0.63;;;;;;;16.97;nan;102706.84;5034021;28;20450;-91
2023/01/03 13:42:37;;;;;;;2.57;0.60;;;;;;;16.98;nan;102714.09;5036803;28;20446;-90
2023/01/03 13:45:14;;;;;;;1.70;0.60;;;;;;;17.06;nan;102710.41;5070046;28;20450;-90
2023/01/03 13:47:44;;;;;;;1.47;0.50;;;;;;;17.09;nan;102713.66;5055796;28;20452;-90
2023/01/03 13:50:31;;;;;;;1.40;0.70;;;;;;;17.07;nan;102701.91;5020441;28;20564;-91
2023/01/03 13:53:04;;;;;;;1.57;0.50;;;;;;;17.02;nan;102698.00;5020028;28;20457;-90
2023/01/03 13:55:39;;;;;;;3.50;0.87;;;;;;;17.07;nan;102690.88;5020223;28;20446;-90
2023/01/03 13:58:31;;;;;;;4.80;0.70;;;;;;;17.04;nan;102691.25;5036609;28;20452;-90
2023/01/03 14:01:00;;;;;;;1.43;0.60;;;;;;;17.01;nan;102688.84;5031658;28;20447;-91
2023/01/03 14:03:41;;;;;;;5.60;0.90;;;;;;;16.98;nan;102697.50;5020855;28;20519;-90
2023/01/03 14:06:22;;;;;;;2.00;0.63;;;;;;;16.92;nan;102692.75;5036482;28;20446;-90
2023/01/03 14:09:11;;;;;;;4.30;0.83;;;;;;;17.01;nan;102690.75;5028392;28;20489;-90
2023/01/03 14:11:59;;;;;;;6.73;0.80;;;;;;;17.03;nan;102689.53;5069372;28;20457;-90
2023/01/03 14:14:27;;;;;;;3.17;1.00;;;;;;;17.06;nan;102685.53;5053513;28;20446;-90
2023/01/03 14:16:57;;;;;;;4.17;1.10;;;;;;;17.00;nan;102680.75;5036336;28;20446;-91
2023/01/03 14:19:31;;;;;;;1.30;0.70;;;;;;;17.15;nan;102681.63;5020040;28;20446;-91
2023/01/03 14:22:04;;;;;;;4.03;1.00;;;;;;;17.19;nan;102683.81;5036437;28;20450;-90
2023/01/03 14:24:56;;;;;;;5.03;0.50;;;;;;;17.16;nan;102675.91;5017985;28;20435;-90
2023/01/03 14:27:31;;;;;;;5.73;0.93;;;;;;;17.11;nan;102680.31;5020199;28;20442;-90
2023/01/03 14:29:59;;;;;;;1.63;0.60;;;;;;;17.06;nan;102682.78;5035962;28;20486;-90
2023/01/03 14:32:28;;;;;;;3.30;0.77;;;;;;;17.05;nan;102681.91;5035591;28;20442;-90
2023/01/03 14:35:01;;;;;;;2.50;0.67;;;;;;;17.16;nan;102683.34;5052428;28;20820;-90
2023/01/03 14:37:29;;;;;;;4.50;1.17;;;;;;;17.26;nan;102686.69;5035850;28;20461;-91
2023/01/03 14:39:58;;;;;;;2.80;0.77;;;;;;;17.34;nan;102674.66;5019576;28;20453;-91
2023/01/03 14:42:25;;;;;;;2.33;0.90;;;;;;;17.34;nan;102670.00;5035513;28;20449;-90
2023/01/03 14:44:57;;;;;;;3.73;0.80;;;;;;;17.40;nan;102669.22;5020424;28;20796;-90
2023/01/03 14:47:34;;;;;;;2.37;0.70;;;;;;;17.41;nan;102670.94;5023370;28;20453;-90
2023/01/03 14:50:09;;;;;;;3.13;0.80;;;;;;;17.36;nan;102678.09;5055814;28;20486;-90
2023/01/03 14:52:39;;;;;;;3.60;1.27;;;;;;;17.21;nan;102664.28;5023155;28;20451;-90
2023/01/03 14:55:14;;;;;;;2.53;0.80;;;;;;;17.26;nan;102668.19;5022893;28;20508;-90
2023/01/03 14:57:43;;;;;;;2.70;0.90;;;;;;;17.19;nan;102656.19;5039297;28;20446;-90
2023/01/03 15:00:25;;;;;;;3.77;0.73;;;;;;;17.21;nan;102676.19;5022781;28;20451;-90
2023/01/03 15:02:58;;;;;;;2.90;0.90;;;;;;;17.16;nan;102655.69;5017766;28;20462;-90
2023/01/03 15:05:37;;;;;;;2.47;0.60;;;;;;;17.13;nan;102656.94;5023069;28;20971;-90
2023/01/03 15:08:13;;;;;;;2.80;0.77;;;;;;;17.07;nan;102668.75;5039510;28;20503;-90
2023/01/03 15:10:46;;;;;;;2.10;0.50;;;;;;;17.11;nan;102661.81;5056460;28;20450;-88
2023/01/03 15:13:27;;;;;;;2.93;0.67;;;;;;;17.10;nan;102662.00;5039267;28;20786;-89
2023/01/03 15:15:57;;;;;;;1.73;0.60;;;;;;;17.04;nan;102663.63;5055247;28;20458;-88
2023/01/03 15:18:33;;;;;;;3.47;0.80;;;;;;;17.07;nan;102667.91;5022502;28;20457;-88
2023/01/03 15:21:02;;;;;;;5.53;1.17;;;;;;;16.99;nan;102660.56;5022333;28;20457;-88
2023/01/03 15:23:45;;;;;;;2.50;0.50;;;;;;;17.01;nan;102664.00;5038803;28;20446;-88
2023/01/03 15:26:36;;;;;;;1.83;0.57;;;;;;;16.95;nan;102659.22;5022306;28;20453;-88
2023/01/03 15:29:10;;;;;;;4.47;1.00;;;;;;;16.95;nan;102658.34;5021887;28;20486;-88
2023/01/03 15:31:50;;;;;;;1.57;0.80;;;;;;;16.98;nan;102653.31;5020776;28;20467;-88
2023/01/03 15:34:27;;;;;;;4.07;1.00;;;;;;;17.05;nan;102664.47;5038755;28;20441;-88
2023/01/03 15:37:11;;;;;;;1.43;0.57;;;;;;;17.00;nan;102667.81;5055110;28;20446;-88
2023/01/03 15:39:41;;;;;;;5.70;0.60;;;;;;;16.88;nan;102674.84;5038295;28;20477;-88
2023/01/03 15:45:25;;;;;;;3.43;0.67;;;;;;;16.69;nan;102687.28;5041801;28;20469;-88
2023/01/03 15:47:55;;;;;;;4.20;1.10;;;;;;;16.70;nan;102674.34;5021802;28;20446;-88
2023/01/03 15:50:23;;;;;;;1.70;0.53;;;;;;;16.63;nan;102681.59;5021717;28;20487;-88
2023/01/03 15:52:51;;;;;;;4.23;0.70;;;;;;;16.55;nan;102680.63;5054760;28;20458;-88
2023/01/03 15:55:19;;;;;;;3.07;0.83;;;;;;;16.57;nan;102678.53;5021434;28;20442;-88
2023/01/03 15:57:49;;;;;;;3.47;0.80;;;;;;;16.48;nan;102682.44;5038287;28;20447;-88
2023/01/03 16:00:21;;;;;;;1.97;0.67;;;;;;;16.44;nan;102689.34;5021779;28;20802;-87
2023/01/03 16:02:49;;;;;;;2.50;0.80;;;;;;;16.43;nan;102692.28;5038097;28;20446;-88
2023/01/03 16:05:17;;;;;;;4.40;0.70;;;;;;;16.32;nan;102682.56;5021477;28;20837;-88
2023/01/03 16:07:48;;;;;;;3.80;0.70;;;;;;;16.42;nan;102688.69;5022234;28;20454;-88
2023/01/03 16:10:16;;;;;;;5.10;0.77;;;;;;;16.35;nan;102690.47;5021260;28;20494;-88
2023/01/03 16:12:45;;;;;;;2.20;0.70;;;;;;;16.35;nan;102698.75;5037955;28;20455;-88
2023/01/03 16:15:18;;;;;;;2.40;0.90;;;;;;;16.28;nan;102695.00;5037930;28;20454;-88
2023/01/03 16:17:46;;;;;;;3.00;0.93;;;;;;;16.23;nan;102703.81;5021775;28;20466;-88
2023/01/03 16:20:17;;;;;;;3.00;1.00;;;;;;;16.15;nan;102700.28;5021744;28;20819;-88
2023/01/03 16:22:51;;;;;;;3.47;0.77;;;;;;;16.12;nan;102706.16;5013592;28;20442;-88
2023/01/03 16:25:26;;;;;;;3.27;0.80;;;;;;;16.01;nan;102709.31;5023793;28;20480;-88
2023/01/03 16:27:54;;;;;;;3.03;1.00;;;;;;;15.92;nan;102704.91;5021054;28;20460;-88
2023/01/03 16:30:23;;;;;;;4.50;0.67;;;;;;;15.80;nan;102709.94;5020682;28;20497;-88
2023/01/03 16:32:50;;;;;;;5.40;0.97;;;;;;;15.68;nan;102717.75;5021384;28;20450;-88